createdAt,value
2018-01-14T00:01:24.200Z,16.50
2018-01-14T00:03:50.014Z,16.59
2018-01-14T00:06:15.827Z,16.61
2018-01-14T00:08:41.646Z,16.59
2018-01-14T00:11:07.466Z,16.47
2018-01-14T00:13:33.283Z,16.56
2018-01-14T00:15:59.214Z,16.53
2018-01-14T00:18:25.035Z,16.53
2018-01-14T00:20:50.919Z,16.61
2018-01-14T00:23:16.774Z,16.55
2018-01-14T00:25:42.601Z,16.56
2018-01-14T00:28:08.427Z,16.64
2018-01-14T00:30:34.291Z,16.59
2018-01-14T00:33:00.110Z,16.60
2018-01-14T00:35:25.926Z,16.59
2018-01-14T00:37:51.754Z,16.60
2018-01-14T00:40:17.565Z,16.53
2018-01-14T00:42:43.434Z,16.60
2018-01-14T00:45:09.355Z,16.69
2018-01-14T00:47:35.183Z,16.67
2018-01-14T00:50:01.000Z,16.61
2018-01-14T00:52:26.815Z,16.56
2018-01-14T00:54:52.865Z,16.56
2018-01-14T00:57:18.675Z,16.65
2018-01-14T00:59:44.495Z,16.73
2018-01-14T01:02:10.311Z,16.75
2018-01-14T01:04:36.534Z,16.76
2018-01-14T01:07:02.359Z,16.76
2018-01-14T01:09:28.180Z,16.80
2018-01-14T01:11:54.221Z,16.75
2018-01-14T01:14:20.126Z,16.79
2018-01-14T01:16:46.114Z,16.77
2018-01-14T01:19:11.976Z,16.75
2018-01-14T01:21:37.806Z,16.70
2018-01-14T01:24:03.618Z,16.71
2018-01-14T01:26:29.453Z,16.76
2018-01-14T01:28:55.351Z,16.79
2018-01-14T01:31:21.190Z,16.72
2018-01-14T01:33:47.039Z,16.74
2018-01-14T01:36:12.887Z,16.68
2018-01-14T01:38:38.721Z,16.63
2018-01-14T01:41:04.580Z,16.59
2018-01-14T01:43:30.539Z,16.73
2018-01-14T01:45:56.393Z,16.53
2018-01-14T01:48:22.292Z,16.64
2018-01-14T01:50:48.109Z,16.54
2018-01-14T01:53:13.922Z,16.59
2018-01-14T01:55:39.779Z,16.51
2018-01-14T01:58:05.766Z,16.48
2018-01-14T02:00:31.583Z,16.52
2018-01-14T02:02:57.395Z,16.59
2018-01-14T02:05:23.203Z,16.38
2018-01-14T02:07:49.049Z,16.57
2018-01-14T02:10:14.862Z,16.54
2018-01-14T02:12:40.690Z,16.55
2018-01-14T02:15:06.534Z,16.61
2018-01-14T02:17:32.518Z,16.65
2018-01-14T02:20:02.459Z,16.53
2018-01-14T02:22:28.281Z,16.51
2018-01-14T02:24:54.130Z,16.49
2018-01-14T02:27:19.986Z,16.62
2018-01-14T02:29:45.851Z,16.63
2018-01-14T02:32:11.670Z,16.50
2018-01-14T02:34:37.555Z,16.52
2018-01-14T02:37:03.371Z,16.57
2018-01-14T02:39:29.217Z,16.64
2018-01-14T02:41:55.034Z,16.51
2018-01-14T02:44:20.995Z,16.52
2018-01-14T02:46:46.809Z,16.54
2018-01-14T02:49:12.630Z,16.59
2018-01-14T02:51:38.454Z,16.61
2018-01-14T02:54:04.331Z,16.65
2018-01-14T02:56:30.150Z,16.66
2018-01-14T02:58:55.978Z,16.59
2018-01-14T03:01:21.798Z,16.54
2018-01-14T03:03:47.654Z,16.66
2018-01-14T03:06:13.466Z,16.62
2018-01-14T03:08:39.325Z,16.57
2018-01-14T03:11:05.432Z,16.56
2018-01-14T03:13:31.301Z,16.65
2018-01-14T03:15:57.206Z,16.68
2018-01-14T03:18:23.014Z,16.64
2018-01-14T03:20:48.835Z,16.66
2018-01-14T03:23:14.654Z,16.71
2018-01-14T03:25:40.476Z,16.64
2018-01-14T03:28:06.298Z,16.57
2018-01-14T03:30:32.203Z,16.56
2018-01-14T03:32:58.597Z,16.50
2018-01-14T03:35:24.414Z,16.55
2018-01-14T03:37:50.291Z,16.49
2018-01-14T03:40:16.109Z,16.47
2018-01-14T03:42:41.931Z,16.52
2018-01-14T03:45:07.871Z,16.42
2018-01-14T03:47:33.725Z,16.47
2018-01-14T03:49:59.541Z,16.50
2018-01-14T03:52:25.393Z,16.51
2018-01-14T03:54:51.289Z,16.46
2018-01-14T03:57:17.195Z,16.53
2018-01-14T03:59:43.047Z,16.58
2018-01-14T04:02:08.871Z,16.58
2018-01-14T04:04:34.717Z,16.45
2018-01-14T04:07:00.531Z,16.50
2018-01-14T04:09:26.386Z,16.52
2018-01-14T04:11:52.202Z,16.46
2018-01-14T04:14:18.164Z,16.48
2018-01-14T04:16:44.174Z,16.39
2018-01-14T04:19:10.047Z,16.54
2018-01-14T04:21:35.867Z,16.58
2018-01-14T04:24:01.718Z,16.50
2018-01-14T04:26:27.534Z,16.65
2018-01-14T04:28:53.398Z,16.62
2018-01-14T04:31:19.218Z,16.66
2018-01-14T04:33:45.038Z,16.60
2018-01-14T04:36:10.857Z,16.55
2018-01-14T04:38:37.483Z,16.42
2018-01-14T04:41:03.340Z,16.51
2018-01-14T04:43:29.164Z,16.49
2018-01-14T04:45:55.058Z,16.59
2018-01-14T04:48:20.882Z,16.64
2018-01-14T04:50:46.882Z,16.60
2018-01-14T04:53:12.714Z,16.59
2018-01-14T04:55:38.568Z,16.58
2018-01-14T04:58:04.447Z,16.53
2018-01-14T05:00:30.286Z,16.57
2018-01-14T05:02:56.134Z,16.58
2018-01-14T05:05:21.950Z,16.67
2018-01-14T05:07:47.784Z,16.66
2018-01-14T05:10:13.594Z,16.64
2018-01-14T05:12:39.414Z,16.63
2018-01-14T05:15:05.346Z,16.61
2018-01-14T05:17:31.202Z,16.65
2018-01-14T05:19:57.022Z,16.58
2018-01-14T05:22:22.901Z,16.63
2018-01-14T05:24:48.726Z,16.59
2018-01-14T05:27:14.587Z,16.64
2018-01-14T05:29:40.403Z,16.63
2018-01-14T05:32:06.224Z,16.62
2018-01-14T05:34:32.050Z,16.63
2018-01-14T05:36:57.935Z,16.67
2018-01-14T05:39:23.757Z,16.63
2018-01-14T05:41:49.570Z,16.55
2018-01-14T05:44:15.425Z,16.43
2018-01-14T05:46:41.418Z,16.39
2018-01-14T05:49:07.230Z,16.36
2018-01-14T05:51:33.046Z,16.42
2018-01-14T05:53:58.861Z,16.41
2018-01-14T05:56:24.722Z,16.42
2018-01-14T05:58:50.541Z,16.51
2018-01-14T06:01:16.451Z,16.42
2018-01-14T06:03:42.269Z,16.46
2018-01-14T06:06:08.122Z,16.32
2018-01-14T06:08:33.934Z,16.47
2018-01-14T06:10:59.922Z,16.54
2018-01-14T06:13:25.734Z,16.54
2018-01-14T06:15:51.590Z,16.51
2018-01-14T06:18:17.424Z,16.62
2018-01-14T06:20:43.346Z,16.61
2018-01-14T06:23:09.174Z,16.59
2018-01-14T06:25:35.015Z,16.57
2018-01-14T06:28:00.830Z,16.64
2018-01-14T06:30:26.649Z,16.55
2018-01-14T06:32:52.602Z,16.61
2018-01-14T06:35:18.415Z,16.53
2018-01-14T06:37:44.235Z,16.60
2018-01-14T06:40:10.063Z,16.61
2018-01-14T06:42:35.897Z,16.59
2018-01-14T06:45:01.805Z,16.64
2018-01-14T06:47:27.738Z,16.69
2018-01-14T06:49:53.553Z,16.63
2018-01-14T06:52:19.388Z,16.63
2018-01-14T06:54:45.390Z,16.62
2018-01-14T06:57:11.235Z,16.63
2018-01-14T06:59:37.086Z,16.58
2018-01-14T07:02:02.911Z,16.61
2018-01-14T07:04:28.732Z,16.60
2018-01-14T07:06:54.551Z,16.56
2018-01-14T07:09:20.439Z,16.64
2018-01-14T07:11:46.474Z,16.59
2018-01-14T07:14:12.463Z,16.57
2018-01-14T07:16:39.685Z,16.59
2018-01-14T07:19:05.526Z,16.59
2018-01-14T07:21:31.382Z,16.55
2018-01-14T07:23:57.205Z,16.53
2018-01-14T07:26:23.155Z,16.60
2018-01-14T07:28:48.981Z,16.43
2018-01-14T07:31:14.874Z,16.54
2018-01-14T07:33:40.874Z,16.57
2018-01-14T07:36:06.727Z,16.60
2018-01-14T07:38:32.570Z,16.39
2018-01-14T07:40:58.391Z,16.39
2018-01-14T07:43:24.248Z,16.46
2018-01-14T07:45:50.066Z,16.52
2018-01-14T07:48:15.881Z,16.52
2018-01-14T07:50:41.748Z,16.60
2018-01-14T07:53:07.730Z,16.51
2018-01-14T07:55:33.548Z,14.35
2018-01-14T07:57:59.463Z,13.22
2018-01-14T08:00:25.284Z,13.49
2018-01-14T08:02:51.209Z,14.77
2018-01-14T08:05:17.017Z,15.44
2018-01-14T08:07:42.958Z,15.77
2018-01-14T08:10:08.834Z,16.05
2018-01-14T08:12:34.667Z,16.07
2018-01-14T08:15:00.478Z,16.14
2018-01-14T08:17:26.350Z,16.19
2018-01-14T08:19:52.170Z,16.24
2018-01-14T08:22:18.031Z,16.26
2018-01-14T08:24:44.016Z,16.28
2018-01-14T08:27:09.834Z,16.31
2018-01-14T08:29:35.688Z,16.29
2018-01-14T08:32:01.546Z,16.34
2018-01-14T08:34:27.365Z,16.33
2018-01-14T08:36:53.183Z,16.35
2018-01-14T08:39:18.998Z,16.38
2018-01-14T08:41:44.978Z,16.36
2018-01-14T08:44:10.793Z,16.38
2018-01-14T08:46:45.323Z,16.36
2018-01-14T08:49:11.578Z,16.44
2018-01-14T08:51:37.451Z,16.44
2018-01-14T08:54:03.270Z,16.47
2018-01-14T08:56:29.327Z,16.47
2018-01-14T08:58:55.325Z,16.51
2018-01-14T09:01:27.287Z,14.91
2018-01-14T09:03:53.210Z,14.18
2018-01-14T09:06:19.135Z,13.10
2018-01-14T09:08:45.042Z,12.87
2018-01-14T09:11:10.846Z,12.88
2018-01-14T09:13:38.744Z,11.79
2018-01-14T09:16:04.557Z,12.44
2018-01-14T09:18:30.400Z,12.21
2018-01-14T09:20:56.255Z,13.14
2018-01-14T09:23:22.070Z,14.08
2018-01-14T09:25:47.922Z,14.69
2018-01-14T09:28:13.774Z,15.25
2018-01-14T09:30:45.707Z,15.48
2018-01-14T09:33:11.558Z,15.63
2018-01-14T09:35:37.711Z,15.77
2018-01-14T09:38:03.570Z,15.88
2018-01-14T09:40:29.395Z,15.97
2018-01-14T09:42:55.234Z,15.98
2018-01-14T09:45:21.042Z,15.82
2018-01-14T09:47:46.895Z,15.95
2018-01-14T09:50:12.787Z,15.90
2018-01-14T09:52:38.729Z,15.88
2018-01-14T09:55:05.374Z,15.93
2018-01-14T09:57:31.262Z,15.90
2018-01-14T09:59:57.190Z,15.88
2018-01-14T10:02:23.217Z,15.88
2018-01-14T10:04:49.033Z,16.04
2018-01-14T10:07:14.848Z,16.14
2018-01-14T10:09:40.660Z,16.18
2018-01-14T10:12:06.594Z,16.12
2018-01-14T10:14:32.506Z,16.10
2018-01-14T10:16:58.429Z,16.13
2018-01-14T10:19:24.353Z,16.15
2018-01-14T10:21:50.197Z,16.16
2018-01-14T10:24:16.194Z,16.10
2018-01-14T10:26:42.001Z,16.14
2018-01-14T10:29:08.755Z,16.24
2018-01-14T10:31:34.568Z,16.19
2018-01-14T10:34:00.522Z,16.23
2018-01-14T10:36:26.553Z,16.21
2018-01-14T10:38:52.362Z,16.27
2018-01-14T10:41:18.278Z,16.22
2018-01-14T10:43:44.094Z,16.20
2018-01-14T10:46:10.031Z,16.20
2018-01-14T10:48:36.035Z,16.15
2018-01-14T10:51:01.983Z,16.10
2018-01-14T10:53:27.874Z,16.18
2018-01-14T10:55:53.717Z,16.24
2018-01-14T10:58:19.666Z,16.19
2018-01-14T11:00:51.493Z,16.22
2018-01-14T11:03:17.342Z,16.24
2018-01-14T11:05:43.263Z,16.30
2018-01-14T11:08:09.149Z,16.29
2018-01-14T11:10:35.010Z,16.24
2018-01-14T11:13:00.818Z,16.31
2018-01-14T11:15:26.634Z,16.36
2018-01-14T11:17:52.443Z,16.39
2018-01-14T11:20:18.260Z,16.30
2018-01-14T11:22:44.076Z,16.25
2018-01-14T11:25:10.055Z,16.17
2018-01-14T11:27:35.899Z,16.33
2018-01-14T11:30:03.566Z,16.28
2018-01-14T11:32:29.418Z,16.36
2018-01-14T11:34:55.439Z,16.25
2018-01-14T11:37:21.395Z,16.36
2018-01-14T11:39:47.278Z,16.38
2018-01-14T11:42:13.191Z,16.30
2018-01-14T11:44:39.046Z,16.31
2018-01-14T11:47:04.903Z,16.31
2018-01-14T11:49:30.727Z,16.36
2018-01-14T11:51:56.706Z,16.31
2018-01-14T11:54:23.669Z,16.29
2018-01-14T11:56:49.525Z,16.31
2018-01-14T11:59:15.384Z,16.36
2018-01-14T12:01:41.281Z,16.34
2018-01-14T12:04:07.130Z,16.33
2018-01-14T12:06:32.973Z,16.35
2018-01-14T12:08:58.825Z,16.39
2018-01-14T12:11:24.641Z,16.38
2018-01-14T12:13:50.463Z,16.33
2018-01-14T12:16:16.285Z,16.39
2018-01-14T12:18:42.246Z,16.32
2018-01-14T12:21:08.053Z,16.39
2018-01-14T12:23:33.869Z,16.45
2018-01-14T12:25:59.722Z,16.45
2018-01-14T12:28:25.619Z,16.40
2018-01-14T12:30:51.429Z,16.40
2018-01-14T12:33:17.458Z,16.43
2018-01-14T12:35:43.310Z,16.47
2018-01-14T12:38:09.382Z,16.45
2018-01-14T12:40:35.247Z,16.36
2018-01-14T12:43:01.071Z,16.31
2018-01-14T12:45:26.891Z,16.37
2018-01-14T12:47:52.717Z,16.39
2018-01-14T12:50:18.523Z,16.37
2018-01-14T12:52:44.339Z,16.35
2018-01-14T12:55:10.391Z,16.34
2018-01-14T12:57:36.202Z,16.36
2018-01-14T13:00:02.243Z,16.32
2018-01-14T13:02:28.235Z,16.36
2018-01-14T13:07:26.702Z,16.32
2018-01-14T13:09:52.511Z,16.35
2018-01-14T13:12:18.331Z,16.40
2018-01-14T13:14:44.279Z,16.37
2018-01-14T13:17:10.198Z,16.37
2018-01-14T13:19:36.015Z,16.41
2018-01-14T13:22:01.841Z,16.36
2018-01-14T13:24:27.658Z,16.40
2018-01-14T13:26:53.498Z,16.41
2018-01-14T13:29:19.362Z,16.39
2018-01-14T13:31:45.181Z,16.40
2018-01-14T13:34:11.151Z,16.44
2018-01-14T13:36:36.958Z,16.32
2018-01-14T13:39:02.802Z,16.37
2018-01-14T13:41:28.622Z,16.41
2018-01-14T13:43:54.430Z,16.38
2018-01-14T13:46:20.304Z,16.38
2018-01-14T13:48:46.129Z,16.36
2018-01-14T13:51:11.949Z,16.32
2018-01-14T13:53:37.762Z,16.36
2018-01-14T13:56:03.578Z,16.39
2018-01-14T13:58:29.450Z,16.42
2018-01-14T14:00:55.270Z,16.36
2018-01-14T14:03:21.193Z,16.40
2018-01-14T14:05:47.013Z,16.40
2018-01-14T14:08:12.934Z,16.38
2018-01-14T14:10:38.747Z,16.40
2018-01-14T14:13:04.703Z,16.32
2018-01-14T14:15:30.634Z,16.40
2018-01-14T14:17:56.503Z,16.38
2018-01-14T14:20:22.366Z,16.35
2018-01-14T14:22:48.429Z,16.39
2018-01-14T14:25:14.295Z,16.44
2018-01-14T14:27:40.207Z,16.41
2018-01-14T14:30:06.162Z,16.35
2018-01-14T14:32:31.994Z,16.28
2018-01-14T14:34:58.019Z,16.36
2018-01-14T14:37:23.847Z,16.38
2018-01-14T14:39:49.749Z,16.42
2018-01-14T14:42:15.724Z,16.42
2018-01-14T14:44:41.551Z,16.37
2018-01-14T14:47:07.366Z,16.40
2018-01-14T14:49:33.219Z,16.43
2018-01-14T14:51:59.047Z,16.43
2018-01-14T14:54:24.882Z,16.46
2018-01-14T14:56:50.707Z,16.51
2018-01-14T14:59:16.683Z,16.43
2018-01-14T15:01:42.497Z,16.43
2018-01-14T15:04:08.348Z,16.39
2018-01-14T15:06:34.235Z,16.43
2018-01-14T15:09:00.112Z,16.42
2018-01-14T15:11:25.930Z,16.41
2018-01-14T15:13:51.921Z,16.41
2018-01-14T15:16:17.780Z,16.43
2018-01-14T15:18:43.606Z,16.47
2018-01-14T15:21:09.602Z,16.42
2018-01-14T15:23:35.599Z,16.49
2018-01-14T15:26:01.464Z,16.40
2018-01-14T15:28:27.322Z,16.48
2018-01-14T15:30:53.150Z,16.50
2018-01-14T15:33:19.018Z,16.44
2018-01-14T15:35:44.878Z,16.50
2018-01-14T15:38:10.740Z,16.45
2018-01-14T15:40:36.564Z,16.49
2018-01-14T15:43:02.387Z,16.50
2018-01-14T15:45:28.403Z,16.41
2018-01-14T15:47:54.258Z,16.41
2018-01-14T15:50:20.082Z,16.40
2018-01-14T15:52:45.962Z,16.45
2018-01-14T15:55:11.803Z,16.36
2018-01-14T15:57:37.631Z,16.37
2018-01-14T16:00:03.819Z,16.36
2018-01-14T16:02:29.715Z,16.40
2018-01-14T16:04:55.692Z,16.39
2018-01-14T16:07:21.515Z,16.39
2018-01-14T16:09:47.368Z,16.42
2018-01-14T16:12:13.201Z,16.43
2018-01-14T16:14:39.181Z,16.44
2018-01-14T16:17:04.996Z,16.50
2018-01-14T16:19:30.864Z,16.17
2018-01-14T16:21:56.735Z,15.95
2018-01-14T16:24:22.628Z,16.20
2018-01-14T16:26:48.681Z,16.32
2018-01-14T16:29:16.541Z,16.40
2018-01-14T16:31:42.423Z,16.41
2018-01-14T16:34:08.347Z,16.42
2018-01-14T16:36:34.158Z,16.47
2018-01-14T16:38:59.974Z,16.48
2018-01-14T16:41:25.957Z,16.50
2018-01-14T16:43:52.006Z,16.44
2018-01-14T16:46:17.826Z,16.46
2018-01-14T16:48:44.817Z,16.51
2018-01-14T16:51:10.629Z,16.42
2018-01-14T16:53:36.550Z,16.29
2018-01-14T16:56:02.506Z,16.32
2018-01-14T16:58:28.418Z,16.33
2018-01-14T17:00:54.306Z,16.40
2018-01-14T17:03:20.334Z,16.31
2018-01-14T17:05:46.357Z,16.37
2018-01-14T17:08:12.171Z,16.42
2018-01-14T17:10:37.983Z,16.41
2018-01-14T17:13:03.809Z,16.38
2018-01-14T17:15:29.630Z,16.37
2018-01-14T17:17:55.446Z,16.44
2018-01-14T17:20:21.267Z,16.48
2018-01-14T17:22:47.099Z,16.44
2018-01-14T17:25:12.911Z,16.41
2018-01-14T17:27:38.729Z,16.48
2018-01-14T17:30:04.547Z,16.48
2018-01-14T17:32:30.406Z,16.47
2018-01-14T17:34:56.234Z,16.48
2018-01-14T17:37:22.102Z,16.44
2018-01-14T17:39:47.906Z,16.17
2018-01-14T17:42:13.819Z,16.33
2018-01-14T17:44:39.820Z,16.40
2018-01-14T17:47:05.682Z,16.42
2018-01-14T17:49:31.506Z,16.41
2018-01-14T17:51:57.326Z,16.48
2018-01-14T17:54:23.138Z,16.47
2018-01-14T17:56:49.053Z,16.44
2018-01-14T17:59:14.893Z,16.47
2018-01-14T18:01:40.856Z,16.50
2018-01-14T18:04:06.799Z,16.45
2018-01-14T18:06:32.601Z,16.45
2018-01-14T18:08:58.588Z,16.47
2018-01-14T18:11:24.406Z,16.50
2018-01-14T18:13:50.284Z,16.46
2018-01-14T18:16:16.138Z,16.36
2018-01-14T18:18:42.101Z,16.33
2018-01-14T18:21:07.957Z,16.42
2018-01-14T18:23:33.815Z,16.38
2018-01-14T18:25:59.790Z,16.41
2018-01-14T18:28:25.657Z,16.48
2018-01-14T18:30:51.474Z,16.55
2018-01-14T18:33:17.376Z,16.48
2018-01-14T18:35:43.346Z,16.52
2018-01-14T18:38:09.166Z,16.41
2018-01-14T18:40:35.069Z,16.46
2018-01-14T18:43:00.920Z,16.45
2018-01-14T18:45:32.744Z,16.45
2018-01-14T18:47:58.572Z,16.52
2018-01-14T18:50:30.837Z,16.42
2018-01-14T18:53:01.739Z,16.42
2018-01-14T18:55:29.065Z,16.49
2018-01-14T18:57:56.555Z,16.44
2018-01-14T19:00:23.354Z,16.51
2018-01-14T19:02:50.391Z,16.57
2018-01-14T19:05:18.822Z,16.43
2018-01-14T19:07:45.436Z,16.47
2018-01-14T19:10:11.338Z,16.50
2018-01-14T19:12:37.354Z,16.52
2018-01-14T19:15:03.170Z,16.48
2018-01-14T19:17:28.990Z,16.53
2018-01-14T19:19:54.842Z,16.42
2018-01-14T19:22:20.673Z,16.52
2018-01-14T19:24:46.525Z,16.49
2018-01-14T19:27:12.346Z,16.56
2018-01-14T19:29:38.364Z,16.58
2018-01-14T19:32:04.226Z,16.54
2018-01-14T19:34:30.105Z,16.48
2018-01-14T19:36:55.930Z,16.54
2018-01-14T19:39:21.805Z,16.51
2018-01-14T19:41:47.634Z,16.53
2018-01-14T19:44:13.635Z,16.55
2018-01-14T19:46:39.502Z,16.43
2018-01-14T19:49:05.412Z,16.45
2018-01-14T19:51:31.443Z,16.51
2018-01-14T19:53:57.362Z,16.56
2018-01-14T19:56:23.312Z,16.53
2018-01-14T19:58:49.327Z,16.52
2018-01-14T20:01:15.159Z,16.53
2018-01-14T20:03:40.997Z,16.28
2018-01-14T20:06:09.942Z,16.33
2018-01-14T20:08:35.854Z,16.31
2018-01-14T20:11:01.771Z,16.25
2018-01-14T20:13:27.703Z,16.25
2018-01-14T20:15:53.583Z,16.28
2018-01-14T20:18:20.442Z,16.33
2018-01-14T20:20:46.270Z,16.28
2018-01-14T20:23:12.194Z,16.21
2018-01-14T20:25:38.039Z,16.26
2018-01-14T20:28:03.867Z,16.32
2018-01-14T20:30:37.410Z,16.32
2018-01-14T20:33:08.281Z,16.34
2018-01-14T20:35:36.059Z,16.32
2018-01-14T20:38:01.943Z,16.35
2018-01-14T20:40:28.640Z,16.31
2018-01-14T20:42:55.634Z,16.33
2018-01-14T20:45:22.294Z,16.38
2018-01-14T20:47:48.242Z,16.33
2018-01-14T20:50:14.115Z,16.37
2018-01-14T20:52:43.656Z,16.40
2018-01-14T20:55:09.921Z,16.34
2018-01-14T20:57:36.246Z,16.39
2018-01-14T21:00:02.070Z,16.37
2018-01-14T21:02:29.214Z,16.46
2018-01-14T21:04:55.082Z,16.33
2018-01-14T21:07:21.083Z,16.35
2018-01-14T21:09:46.955Z,16.31
2018-01-14T21:12:12.774Z,16.30
2018-01-14T21:14:38.786Z,16.31
2018-01-14T21:17:04.626Z,16.29
2018-01-14T21:19:31.702Z,16.32
2018-01-14T21:22:00.454Z,16.37
2018-01-14T21:24:26.277Z,16.42
2018-01-14T21:26:54.139Z,16.41
2018-01-14T21:29:20.066Z,16.42
2018-01-14T21:31:47.647Z,16.32
2018-01-14T21:34:13.601Z,16.30
2018-01-14T21:36:41.602Z,16.36
2018-01-14T21:39:07.678Z,16.34
2018-01-14T21:41:35.851Z,16.35
2018-01-14T21:44:01.783Z,16.37
2018-01-14T21:46:30.238Z,16.34
2018-01-14T21:49:01.385Z,16.37
2018-01-14T21:51:32.175Z,16.35
2018-01-14T21:53:58.119Z,16.39
2018-01-14T21:56:23.954Z,16.39
2018-01-14T21:58:51.489Z,16.35
2018-01-14T22:01:17.363Z,16.26
2018-01-14T22:03:43.262Z,16.23
2018-01-14T22:06:09.128Z,16.30
2018-01-14T22:08:35.052Z,16.32
2018-01-14T22:11:00.968Z,16.31
2018-01-14T22:13:26.788Z,16.37
2018-01-14T22:15:52.643Z,16.36
2018-01-14T22:18:18.458Z,16.37
2018-01-14T22:20:44.339Z,16.33
2018-01-14T22:23:10.147Z,16.29
2018-01-14T22:25:35.966Z,16.37
2018-01-14T22:28:01.935Z,16.31
2018-01-14T22:30:27.834Z,16.32
2018-01-14T22:32:53.698Z,16.37
2018-01-14T22:35:19.511Z,16.28
2018-01-14T22:37:45.363Z,16.19
2018-01-14T22:40:11.215Z,16.29
2018-01-14T22:42:37.030Z,16.34
2018-01-14T22:45:02.850Z,16.37
2018-01-14T22:47:28.675Z,16.29
2018-01-14T22:49:54.530Z,16.25
2018-01-14T22:52:20.394Z,16.25
2018-01-14T22:54:46.206Z,16.25
2018-01-14T22:57:12.038Z,16.30
2018-01-14T22:59:37.881Z,16.29
2018-01-14T23:02:03.721Z,16.23
2018-01-14T23:04:29.579Z,16.25
2018-01-14T23:06:55.398Z,16.23
2018-01-14T23:09:21.259Z,16.31
2018-01-14T23:11:47.134Z,16.31
2018-01-14T23:14:12.959Z,16.33
2018-01-14T23:16:38.781Z,16.30
2018-01-14T23:19:04.594Z,16.29
2018-01-14T23:21:30.414Z,16.25
2018-01-14T23:23:56.225Z,16.31
2018-01-14T23:26:22.087Z,16.28
2018-01-14T23:28:47.938Z,16.25
2018-01-14T23:31:13.755Z,16.22
2018-01-14T23:33:39.590Z,16.24
2018-01-14T23:36:05.407Z,16.26
2018-01-14T23:38:32.016Z,16.26
2018-01-14T23:40:57.825Z,16.28
2018-01-14T23:43:23.639Z,16.18
2018-01-14T23:45:49.499Z,16.17
2018-01-14T23:48:15.359Z,16.19
2018-01-14T23:50:41.178Z,16.22
2018-01-14T23:53:06.993Z,16.14
2018-01-14T23:55:32.807Z,16.17
2018-01-14T23:57:58.634Z,16.08
